Archival Weather

Tokyo Intl

Tokyo, Japan (RJTT)

Report from: Tuesday, November 21, 2023 3:30 AM JST
Current time: Saturday, March 2, 2024 7:57 PM JST

Current weather – Weather history – Daily summaries
Weather forecast

Temperature11.0°C (51.8°F)
Dew point3.0°C (37.4°F)
Winds 13 kts (6.7 m/s, 15 mph) North-Northwest (340°)
Visibility6.2 mi. (10 km)
Clouds Few clouds 1,000 ft. (305 m)
Altimeter30.15 in.Hg (1021 mB)
Relative humidity58 %
Density altitude-626 ft. (-191 m)
Remarks No significant changes expected in the next two hours
Flight conditions Visual Meteorological Conditions
Raw dataRJTT 201830Z 34013KT 9999 FEW010 11/03 Q1021 NOSIG RMK 1ST010 A3017
An error has occurred. This application may no longer respond until reloaded. Reload 🗙